Tropical Cyclones
[Index]
Main Index Home Page Stock Weather Photos Extreme Storms Discussion Storm News and Storm Chasing Reports Tropical Cyclones / Hurricanes / Typhoons Weather Data and Links Wild Fires / Bushfires Weather Observation Techniques Weather Picture Catalogue Tornado Pictures and Reports Stock Video Footage and DVDs for sale
Season 1991-1992 Tropical Cyclone HARRIET Track Map
Season 1991-1992 Summaries: [BoM-AU] [JTWC-AU] [JTWC-SIO] [JTWC-SPAC] [JTWC-SH]
<<- Previous TC | BoM 1991-1992 Season | Next TC ->>

click for intensity scale information  Lat/long Grid: Show Hide

 Date Labels: Show Hide

Bureau of Meteorology Tropical Cyclone Data

Name: HARRIET
Number: 747 / 199192_05

24 Feb 1992 18:00 UTC to 08 Mar 1992 12:00 UTC

    date/time    lat    long    hPa   cat  kts
1992-02-24 18   11.5   101.8   1000         31          
1992-02-25 00   11.2   101.0    995    1    39          
1992-02-25 06   11.1   100.5    995    1    39          
1992-02-25 12   11.1   100.0    995    1    39          
1992-02-25 18   11.2    99.5    995    1    39          
1992-02-26 00   11.3    99.0    995    1    39          
1992-02-26 06   11.5    98.5    990    1    47          
1992-02-26 12   11.8    97.9    985    2    54          
1992-02-26 18   11.9    97.4    980    2    60          
1992-02-27 00   12.0    96.8    978    2    64          
1992-02-27 06   12.1    96.2    975    2    66          
1992-02-27 12   12.2    95.7    970    3    74          
1992-02-27 18   12.2    95.1    965    3    80          
1992-02-28 00   12.4    94.6    960    3    84          
1992-02-28 06   12.6    94.1    955    4    89          
1992-02-28 12   12.9    93.6    955    4    89          
1992-02-28 18   13.2    93.2    945    4    99          
1992-02-29 00   13.6    92.8    935    4    109          
1992-02-29 06   14.0    92.4    935    4    109          
1992-02-29 12   14.4    91.8    930    4    113          
1992-02-29 18   14.7    91.2    930    4    113          
1992-03-01 00   14.9    90.6    930    4    113          
1992-03-01 06   15.1    89.9    930    4    113          
1992-03-01 12   15.2    89.3    930    4    113          
1992-03-01 18   15.2    88.8    935    4    109          
1992-03-02 00   15.2    88.4    935    4    109          
1992-03-02 06   15.1    87.9    940    4    103          
1992-03-02 12   14.9    87.5    940    4    103          
1992-03-02 18   14.7    87.1    940    4    103          
1992-03-03 00   14.8    86.7    940    4    103          
1992-03-03 06   14.9    86.4    940    4    103          
1992-03-03 12   15.1    86.0    940    4    103          
1992-03-03 18   15.3    85.7    945    4    99          
1992-03-04 00   15.6    85.5    945    4    99          
1992-03-04 06   15.8    85.2    950    4    95          
1992-03-04 12   16.2    85.0    950    4    95          
1992-03-04 18   16.8    84.9    945    4    99          
1992-03-05 00   17.5    85.0    945    4    99          
1992-03-05 06   18.1    85.1    935    4    109          
1992-03-05 12   18.7    85.1    940    4    103          
1992-03-05 18   19.4    85.5    940    4    103          
1992-03-06 00   19.9    85.8    940    4    103          
1992-03-06 06   20.7    86.4    945    4    99          
1992-03-06 12   21.7    87.2    950    4    95          
1992-03-06 18   22.9    88.2    955    4    89          
1992-03-07 00   24.2    89.3    960    3    84          
1992-03-07 06   25.8    90.9    960    3    84          
1992-03-07 12   27.5    92.7    965    3    80          
1992-03-07 18   30.5    96.0    970    3    74          
1992-03-08 00   33.2    99.5    975    2    66          
1992-03-08 06   36.0   103.5    980    2    60          
1992-03-08 12   40.0   110.0    990    1    47          
Winds are 10-min average.

Tropical cyclone tracks developed by Michael Bath using data from the Bureau of Meteorology and Google Maps.


[Australian Severe Weather index] [Copyright Notice] [Email Contacts] [Search This Site] [Privacy Policy]
Document: tropical_cyclone_harriet.htm Updated: 30 May 2013